createdAt,value
2023-07-04T00:00:46.422Z,100451.00
2023-07-04T00:03:12.951Z,100443.75
2023-07-04T00:05:39.568Z,100444.44
2023-07-04T00:08:05.969Z,100445.22
2023-07-04T00:10:32.360Z,100436.63
2023-07-04T00:12:58.784Z,100430.06
2023-07-04T00:15:25.167Z,100434.28
2023-07-04T00:17:51.632Z,100443.00
2023-07-04T00:20:18.055Z,100442.41
2023-07-04T00:22:45.443Z,100446.75
2023-07-04T00:25:11.959Z,100453.97
2023-07-04T00:27:40.345Z,100440.97
2023-07-04T00:30:07.349Z,100447.41
2023-07-04T00:32:36.113Z,100433.63
2023-07-04T00:35:03.692Z,100435.06
2023-07-04T00:37:30.107Z,100432.19
2023-07-04T00:39:57.544Z,100429.34
2023-07-04T00:42:23.951Z,100432.94
2023-07-04T00:44:56.179Z,100432.19
2023-07-04T00:47:34.141Z,100432.19
2023-07-04T00:50:07.494Z,100440.19
2023-07-04T00:52:34.800Z,100436.56
2023-07-04T00:55:07.879Z,100437.97
2023-07-04T00:57:38.238Z,100438.03
2023-07-04T01:00:13.828Z,100445.28
2023-07-04T01:02:40.316Z,100435.13
2023-07-04T01:05:06.761Z,100440.91
2023-07-04T01:07:42.981Z,100436.63
2023-07-04T01:10:11.814Z,100429.34
2023-07-04T01:12:38.208Z,100435.13
2023-07-04T01:15:04.803Z,100427.91
2023-07-04T01:17:31.277Z,100426.41
2023-07-04T01:19:58.278Z,100420.63
2023-07-04T01:22:35.103Z,100422.84
2023-07-04T01:25:02.690Z,100423.59
2023-07-04T01:27:29.090Z,100418.50
2023-07-04T01:29:56.329Z,100422.13
2023-07-04T01:32:23.634Z,100423.59
2023-07-04T01:34:50.301Z,100422.13
2023-07-04T01:37:17.727Z,100438.72
2023-07-04T01:39:44.128Z,100430.78
2023-07-04T01:42:10.567Z,100430.78
2023-07-04T01:44:36.977Z,100439.44
2023-07-04T01:47:03.641Z,100439.44
2023-07-04T01:49:30.213Z,100435.06
2023-07-04T01:51:56.629Z,100437.97
2023-07-04T01:54:23.142Z,100444.50
2023-07-04T01:56:51.945Z,100437.28
2023-07-04T01:59:18.834Z,100434.41
2023-07-04T02:01:45.301Z,100435.13
2023-07-04T02:04:11.826Z,100438.03
2023-07-04T02:06:38.484Z,100445.22
2023-07-04T02:09:05.865Z,100438.72
2023-07-04T02:11:32.266Z,100442.34
2023-07-04T02:13:59.641Z,100432.94
2023-07-04T02:16:26.143Z,100431.53
2023-07-04T02:18:52.588Z,100435.13
2023-07-04T02:21:19.796Z,100436.56
2023-07-04T02:23:47.346Z,100430.06
2023-07-04T02:26:13.969Z,100439.44
2023-07-04T02:28:41.173Z,100435.06
2023-07-04T02:31:07.709Z,100437.97
2023-07-04T02:33:35.194Z,100439.41
2023-07-04T02:36:02.039Z,100431.47
2023-07-04T02:38:28.608Z,100433.69
2023-07-04T02:40:55.239Z,100436.56
2023-07-04T02:43:21.903Z,100442.28
2023-07-04T02:45:48.461Z,100440.84
2023-07-04T02:48:15.791Z,100437.97
2023-07-04T02:50:43.112Z,100432.19
2023-07-04T02:53:09.915Z,100432.09
2023-07-04T02:55:37.452Z,100430.66
2023-07-04T02:58:05.119Z,100433.69
2023-07-04T03:00:33.945Z,100435.84
2023-07-04T03:03:01.387Z,100436.56
2023-07-04T03:05:27.962Z,100437.19
2023-07-04T03:07:54.779Z,100445.00
2023-07-04T03:10:21.699Z,100445.00
2023-07-04T03:12:48.189Z,100444.88
2023-07-04T03:15:15.336Z,100445.50
2023-07-04T03:17:46.876Z,100448.38
2023-07-04T03:20:14.669Z,100444.78
2023-07-04T03:22:43.832Z,100444.78
2023-07-04T03:25:10.731Z,100456.31
2023-07-04T03:27:37.749Z,100456.31
2023-07-04T03:30:05.726Z,100448.06
2023-07-04T03:32:33.140Z,100454.94
2023-07-04T03:35:02.247Z,100458.41
2023-07-04T03:37:29.249Z,100462.75
2023-07-04T03:39:56.569Z,100451.25
2023-07-04T03:42:22.980Z,100452.63
2023-07-04T03:44:49.423Z,100457.03
2023-07-04T03:47:15.824Z,100464.16
2023-07-04T03:49:42.672Z,100477.19
2023-07-04T03:52:09.114Z,100472.03
2023-07-04T03:54:35.580Z,100476.38
2023-07-04T03:57:02.075Z,100465.53
2023-07-04T03:59:28.534Z,100475.72
2023-07-04T04:01:54.941Z,100480.75
2023-07-04T04:04:21.521Z,100482.09
2023-07-04T04:06:52.189Z,100486.41
2023-07-04T04:09:18.590Z,100492.91
2023-07-04T04:11:45.254Z,100494.31
2023-07-04T04:14:11.682Z,100497.94
2023-07-04T04:16:38.097Z,100500.03
2023-07-04T04:19:04.537Z,100501.56
2023-07-04T04:21:30.968Z,100513.03
2023-07-04T04:23:57.477Z,100508.75
2023-07-04T04:26:23.884Z,100512.38
2023-07-04T04:28:50.319Z,100514.53
2023-07-04T04:31:16.769Z,100515.25
2023-07-04T04:33:43.757Z,100514.53
2023-07-04T04:36:10.179Z,100519.09
2023-07-04T04:38:37.627Z,100515.03
2023-07-04T04:41:04.763Z,100530.13
2023-07-04T04:43:33.896Z,100528.03
2023-07-04T04:46:00.789Z,100530.28
2023-07-04T04:48:30.545Z,100530.63
2023-07-04T04:50:58.917Z,100535.03
2023-07-04T04:53:26.157Z,100541.63
2023-07-04T04:55:52.772Z,100558.28
2023-07-04T04:58:19.507Z,100558.94
2023-07-04T05:00:46.073Z,100560.34
2023-07-04T05:03:12.471Z,100555.31
2023-07-04T05:05:38.881Z,100554.59
2023-07-04T05:08:05.339Z,100561.09
2023-07-04T05:10:31.739Z,100563.91
2023-07-04T05:12:59.299Z,100562.50
2023-07-04T05:15:25.751Z,100571.91
2023-07-04T05:17:52.187Z,100575.47
2023-07-04T05:20:24.527Z,100581.97
2023-07-04T05:22:51.070Z,100589.22
2023-07-04T05:25:17.479Z,100587.13
2023-07-04T05:27:43.953Z,100585.69
2023-07-04T05:30:10.524Z,100595.06
2023-07-04T05:32:36.913Z,100594.38
2023-07-04T05:35:03.329Z,100592.91
2023-07-04T05:37:30.697Z,100592.19
2023-07-04T05:39:58.151Z,100597.25
2023-07-04T05:42:26.615Z,100600.16
2023-07-04T05:44:53.111Z,100600.16
2023-07-04T05:47:19.593Z,100604.47
2023-07-04T05:49:46.004Z,100598.69
2023-07-04T05:52:12.383Z,100608.69
2023-07-04T05:54:38.743Z,100598.56
2023-07-04T05:57:05.294Z,100592.84
2023-07-04T05:59:32.087Z,100600.78
2023-07-04T06:01:59.712Z,100616.59
2023-07-04T06:04:26.221Z,100618.69
2023-07-04T06:06:53.193Z,100619.56
2023-07-04T06:09:19.778Z,100624.59
2023-07-04T06:11:47.184Z,100626.81
2023-07-04T06:14:18.646Z,100636.88
2023-07-04T06:16:45.102Z,100631.88
2023-07-04T06:19:11.519Z,100632.59
2023-07-04T06:21:43.893Z,100626.13
2023-07-04T06:24:11.270Z,100621.78
2023-07-04T06:26:37.839Z,100630.44
2023-07-04T06:29:04.273Z,100617.47
2023-07-04T06:31:30.759Z,100626.13
2023-07-04T06:33:57.321Z,100626.13
2023-07-04T06:36:23.768Z,100624.75
2023-07-04T06:38:50.762Z,100625.47
2023-07-04T06:41:17.204Z,100636.28
2023-07-04T06:43:44.657Z,100634.88
2023-07-04T06:46:12.084Z,100637.03
2023-07-04T06:48:38.632Z,100637.75
2023-07-04T06:51:08.487Z,100640.63
2023-07-04T06:53:35.720Z,100638.50
2023-07-04T06:56:07.072Z,100641.41
2023-07-04T06:58:35.659Z,100649.31
2023-07-04T07:03:30.447Z,100655.06
2023-07-04T07:05:56.970Z,100655.84
2023-07-04T07:08:23.429Z,100669.59
2023-07-04T07:10:57.017Z,100669.59
2023-07-04T07:13:23.493Z,100668.19
2023-07-04T07:15:50.783Z,100678.97
2023-07-04T07:18:17.342Z,100672.53
2023-07-04T07:20:43.900Z,100674.03
2023-07-04T07:23:10.683Z,100684.09
2023-07-04T07:25:37.377Z,100689.88
2023-07-04T07:28:04.094Z,100681.28
2023-07-04T07:30:30.577Z,100684.16
2023-07-04T07:32:57.389Z,100678.44
2023-07-04T07:35:23.954Z,100679.13
2023-07-04T07:37:50.399Z,100698.59
2023-07-04T07:40:16.882Z,100685.59
2023-07-04T07:42:43.309Z,100685.59
2023-07-04T07:45:09.836Z,100675.44
2023-07-04T07:47:36.400Z,100685.59
2023-07-04T07:50:02.879Z,100682.72
2023-07-04T07:52:29.363Z,100684.09
2023-07-04T07:54:55.801Z,100681.28
2023-07-04T07:57:22.216Z,100681.28
2023-07-04T07:59:50.506Z,100681.28
2023-07-04T08:02:17.077Z,100682.72
2023-07-04T08:04:43.702Z,100690.00
2023-07-04T08:07:10.362Z,100697.28
2023-07-04T08:09:36.789Z,100697.28
2023-07-04T08:12:05.545Z,100684.16
2023-07-04T08:14:32.317Z,100702.16
2023-07-04T08:16:58.838Z,100693.56
2023-07-04T08:19:25.234Z,100700.75
2023-07-04T08:21:51.947Z,100695.78
2023-07-04T08:24:18.378Z,100688.50
2023-07-04T08:26:48.038Z,100689.28
2023-07-04T08:29:14.532Z,100697.28
2023-07-04T08:31:41.038Z,100701.56
2023-07-04T08:34:07.474Z,100700.81
2023-07-04T08:36:33.867Z,100701.56
2023-07-04T08:39:00.428Z,100703.81
2023-07-04T08:41:26.758Z,100711.84
2023-07-04T08:43:59.930Z,100711.91
2023-07-04T08:46:26.386Z,100709.75
2023-07-04T08:48:53.056Z,100711.91
2023-07-04T08:51:24.250Z,100704.00
2023-07-04T08:53:52.725Z,100709.09
2023-07-04T08:56:23.321Z,100710.56
2023-07-04T08:58:52.083Z,100707.75
2023-07-04T09:01:20.866Z,100707.69
2023-07-04T09:03:57.756Z,100709.91
2023-07-04T09:06:28.647Z,100704.78
2023-07-04T09:09:07.028Z,100710.56
2023-07-04T09:11:33.411Z,100712.06
2023-07-04T09:14:04.153Z,100715.69
2023-07-04T09:16:37.634Z,100714.88
2023-07-04T09:19:06.223Z,100720.72
2023-07-04T09:21:32.769Z,100720.66
2023-07-04T09:24:01.015Z,100722.13
2023-07-04T09:26:29.310Z,100723.63
2023-07-04T09:28:56.285Z,100736.63
2023-07-04T09:31:32.507Z,100730.84
2023-07-04T09:34:01.328Z,100717.84
2023-07-04T09:36:30.905Z,100719.31
2023-07-04T09:38:57.900Z,100726.56
2023-07-04T09:41:28.304Z,100719.31
2023-07-04T09:43:55.408Z,100727.22
2023-07-04T09:46:23.113Z,100730.94
2023-07-04T09:48:51.090Z,100720.78
2023-07-04T09:51:24.534Z,100729.53
2023-07-04T09:53:51.110Z,100728.03
2023-07-04T09:56:27.308Z,100730.19
2023-07-04T09:59:19.779Z,100719.38
2023-07-04T10:01:47.092Z,100722.25
2023-07-04T10:04:14.589Z,100728.03
2023-07-04T10:06:40.985Z,100725.22
2023-07-04T10:09:18.774Z,100722.41
2023-07-04T10:11:45.500Z,100725.22
2023-07-04T10:14:13.473Z,100726.63
2023-07-04T10:16:51.608Z,100722.41
2023-07-04T10:19:19.993Z,100738.25
2023-07-04T10:21:47.329Z,100733.88
2023-07-04T10:24:16.300Z,100733.94
2023-07-04T10:26:42.700Z,100729.63
2023-07-04T10:29:09.201Z,100728.19
2023-07-04T10:31:37.217Z,100734.03
2023-07-04T10:34:04.931Z,100729.63
2023-07-04T10:36:34.463Z,100739.81
2023-07-04T10:39:01.542Z,100735.31
2023-07-04T10:41:49.736Z,100732.59
2023-07-04T10:44:25.843Z,100739.88
2023-07-04T10:46:53.706Z,100741.34
2023-07-04T10:49:20.865Z,100739.88
2023-07-04T10:51:47.626Z,100744.16
2023-07-04T10:54:14.661Z,100738.44
2023-07-04T10:56:44.708Z,100736.19
2023-07-04T10:59:13.257Z,100751.50
2023-07-04T11:01:40.925Z,100744.28
2023-07-04T11:04:11.720Z,100748.59
2023-07-04T11:06:39.864Z,100746.38
2023-07-04T11:09:07.324Z,100755.13
2023-07-04T11:11:33.736Z,100748.59
2023-07-04T11:14:04.760Z,100768.13
2023-07-04T11:16:32.867Z,100759.53
2023-07-04T11:19:22.733Z,100755.25
2023-07-04T11:21:55.291Z,100771.81
2023-07-04T11:24:21.704Z,100771.09
2023-07-04T11:26:51.942Z,100761.75
2023-07-04T11:29:19.382Z,100765.38
2023-07-04T11:32:04.195Z,100765.44
2023-07-04T11:34:42.029Z,100761.03
2023-07-04T11:37:10.789Z,100761.84
2023-07-04T11:39:37.677Z,100755.97
2023-07-04T11:42:22.718Z,100760.41
2023-07-04T11:45:07.548Z,100746.66
2023-07-04T11:47:43.829Z,100755.38
2023-07-04T11:50:14.390Z,100753.16
2023-07-04T11:52:42.050Z,100763.28
2023-07-04T11:55:13.934Z,100754.63
2023-07-04T11:57:55.810Z,100770.50
2023-07-04T12:00:25.356Z,100760.41
2023-07-04T12:02:51.807Z,100766.19
2023-07-04T12:05:30.958Z,100768.41
2023-07-04T12:08:00.782Z,100779.97
2023-07-04T12:10:27.294Z,100782.13
2023-07-04T12:13:01.698Z,100786.47
2023-07-04T12:15:28.716Z,100776.41
2023-07-04T12:17:59.700Z,100787.91
2023-07-04T12:20:29.635Z,100779.97
2023-07-04T12:22:56.651Z,100786.47
2023-07-04T12:25:23.959Z,100772.78
2023-07-04T12:27:50.370Z,100775.00
2023-07-04T12:30:16.894Z,100780.84
2023-07-04T12:32:43.385Z,100773.56
2023-07-04T12:35:13.723Z,100778.75
2023-07-04T12:37:41.144Z,100770.81
2023-07-04T12:40:12.558Z,100766.47
2023-07-04T12:42:38.953Z,100763.63
2023-07-04T12:45:09.706Z,100760.69
2023-07-04T12:47:36.573Z,100762.16
2023-07-04T12:50:04.379Z,100773.09
2023-07-04T12:52:31.964Z,100763.00
2023-07-04T12:54:58.383Z,100761.63
2023-07-04T12:57:25.994Z,100757.25
2023-07-04T12:59:52.396Z,100776.06
2023-07-04T13:02:23.723Z,100766.72
2023-07-04T13:04:51.400Z,100759.47
2023-07-04T13:07:22.175Z,100766.66
2023-07-04T13:09:51.593Z,100766.72
2023-07-04T13:12:22.497Z,100767.47
2023-07-04T13:14:48.905Z,100760.94
2023-07-04T13:17:19.036Z,100758.88
2023-07-04T13:19:45.430Z,100761.78
2023-07-04T13:22:12.355Z,100758.19
2023-07-04T13:27:24.054Z,100756.78
2023-07-04T13:34:52.719Z,100758.25
2023-07-04T13:37:21.402Z,100763.28
2023-07-04T13:39:53.719Z,100765.38
2023-07-04T13:42:21.319Z,100749.44
2023-07-04T13:47:17.529Z,100771.22
2023-07-04T13:49:43.991Z,100760.47
2023-07-04T13:52:10.585Z,100774.28
2023-07-04T13:54:37.006Z,100767.91
2023-07-04T13:57:03.754Z,100768.56
2023-07-04T13:59:30.164Z,100772.91
2023-07-04T14:06:55.450Z,100765.63
2023-07-04T14:09:22.020Z,100773.03
2023-07-04T14:11:48.426Z,100772.97
2023-07-04T14:17:28.088Z,100786.06
2023-07-04T14:22:00.131Z,100770.13
2023-07-04T14:24:26.663Z,100770.13
2023-07-04T14:26:53.057Z,100776.72
2023-07-04T14:29:19.457Z,100778.81
2023-07-04T14:31:45.904Z,100781.00
2023-07-04T14:34:12.318Z,100773.03
2023-07-04T14:36:38.717Z,100770.19
2023-07-04T14:39:05.285Z,100773.03
2023-07-04T14:44:02.157Z,100771.53
2023-07-04T14:46:28.594Z,100779.41
2023-07-04T14:48:55.188Z,100772.16
2023-07-04T14:51:21.620Z,100771.47
2023-07-04T14:53:48.021Z,100780.13
2023-07-04T14:56:14.871Z,100775.78
2023-07-04T14:58:41.357Z,100780.13
2023-07-04T15:01:07.821Z,100776.59
2023-07-04T15:03:34.914Z,100784.38
2023-07-04T15:06:01.770Z,100775.09
2023-07-04T15:08:28.218Z,100775.06
2023-07-04T15:10:54.654Z,100785.91
2023-07-04T15:13:21.117Z,100773.50
2023-07-04T15:15:47.718Z,100774.22
2023-07-04T15:18:14.513Z,100778.53
2023-07-04T15:20:40.927Z,100768.44
2023-07-04T15:23:07.433Z,100772.03
2023-07-04T15:25:34.060Z,100772.75
2023-07-04T15:28:00.660Z,100779.28
2023-07-04T15:30:27.179Z,100784.25
2023-07-04T15:32:55.272Z,100786.41
2023-07-04T15:35:21.776Z,100779.97
2023-07-04T15:37:48.206Z,100771.91
2023-07-04T15:40:14.738Z,100774.91
2023-07-04T15:42:47.363Z,100771.22
2023-07-04T15:45:13.862Z,100772.63
2023-07-04T15:47:40.360Z,100770.53
2023-07-04T15:50:07.034Z,100772.69
2023-07-04T15:52:33.489Z,100774.13
2023-07-04T15:54:59.889Z,100774.84
2023-07-04T15:57:26.276Z,100764.75
2023-07-04T15:59:52.666Z,100769.81
2023-07-04T16:02:19.127Z,100788.63
2023-07-04T16:04:48.378Z,100781.38
2023-07-04T16:07:14.837Z,100798.03
2023-07-04T16:09:41.231Z,100788.63
2023-07-04T16:12:07.666Z,100777.66
2023-07-04T16:14:34.101Z,100788.63
2023-07-04T16:17:00.499Z,100784.31
2023-07-04T16:19:26.885Z,100771.22
2023-07-04T16:21:53.280Z,100778.53
2023-07-04T16:24:19.683Z,100790.84
2023-07-04T16:26:46.052Z,100787.28
2023-07-04T16:29:12.470Z,100791.56
2023-07-04T16:31:40.581Z,100794.66
2023-07-04T16:34:06.990Z,100786.91
2023-07-04T16:36:33.840Z,100795.66
2023-07-04T16:39:00.238Z,100793.22
2023-07-04T16:41:27.131Z,100800.97
2023-07-04T16:43:53.553Z,100795.94
2023-07-04T16:46:20.003Z,100790.09
2023-07-04T16:48:46.422Z,100800.97
2023-07-04T16:51:14.376Z,100793.00
2023-07-04T16:53:40.774Z,100800.84
2023-07-04T16:56:08.646Z,100801.72
2023-07-04T16:58:37.572Z,100798.03
2023-07-04T17:01:04.106Z,100796.56
2023-07-04T17:03:30.767Z,100797.22
2023-07-04T17:06:01.084Z,100797.88
2023-07-04T17:08:29.214Z,100803.66
2023-07-04T17:10:57.194Z,100797.88
2023-07-04T17:13:37.271Z,100802.19
2023-07-04T17:16:05.375Z,100796.41
2023-07-04T17:18:31.830Z,100807.22
2023-07-04T17:20:58.304Z,100805.59
2023-07-04T17:23:24.704Z,100811.09
2023-07-04T17:25:53.540Z,100806.91
2023-07-04T17:28:20.238Z,100806.53
2023-07-04T17:30:47.150Z,100804.50
2023-07-04T17:33:13.559Z,100805.25
2023-07-04T17:35:47.819Z,100803.81
2023-07-04T17:38:21.172Z,100810.47
2023-07-04T17:40:47.577Z,100819.31
2023-07-04T17:43:13.945Z,100812.63
2023-07-04T17:45:40.334Z,100824.88
2023-07-04T17:48:06.820Z,100830.06
2023-07-04T17:50:33.292Z,100825.06
2023-07-04T17:52:59.667Z,100834.19
2023-07-04T17:55:27.247Z,100840.44
2023-07-04T17:57:55.716Z,100832.31
2023-07-04T18:00:22.153Z,100842.25
2023-07-04T18:02:48.595Z,100833.81
2023-07-04T18:05:15.018Z,100843.88
2023-07-04T18:07:41.416Z,100839.41
2023-07-04T18:10:07.798Z,100838.66
2023-07-04T18:12:34.187Z,100844.75
2023-07-04T18:15:00.586Z,100843.78
2023-07-04T18:17:27.056Z,100851.22
2023-07-04T18:19:56.357Z,100856.16
2023-07-04T18:22:26.036Z,100855.94
2023-07-04T18:24:54.097Z,100862.19
2023-07-04T18:27:20.758Z,100863.31
2023-07-04T18:29:47.152Z,100854.38
2023-07-04T18:32:13.552Z,100857.94
2023-07-04T18:34:39.946Z,100859.44
2023-07-04T18:37:06.341Z,100859.47
2023-07-04T18:39:32.950Z,100859.09
2023-07-04T18:41:59.396Z,100862.03
2023-07-04T18:44:25.795Z,100870.06
2023-07-04T18:46:52.926Z,100871.53
2023-07-04T18:49:20.102Z,100870.06
2023-07-04T18:51:46.504Z,100875.34
2023-07-04T18:54:13.613Z,100873.75
2023-07-04T18:56:41.808Z,100865.25
2023-07-04T18:59:08.761Z,100871.44
2023-07-04T19:01:35.928Z,100882.06
2023-07-04T19:04:02.513Z,100883.81
2023-07-04T19:06:29.970Z,100892.28
2023-07-04T19:08:56.573Z,100882.41
2023-07-04T19:11:23.318Z,100893.28
2023-07-04T19:14:09.147Z,100899.00
2023-07-04T19:16:38.347Z,100899.06
2023-07-04T19:19:05.693Z,100899.06
2023-07-04T19:21:32.553Z,100904.13
2023-07-04T19:23:58.968Z,100904.13
2023-07-04T19:26:25.372Z,100913.97
2023-07-04T19:28:53.277Z,100914.75
2023-07-04T19:31:19.730Z,100914.03
2023-07-04T19:33:46.136Z,100923.59
2023-07-04T19:36:12.539Z,100921.09
2023-07-04T19:38:38.934Z,100928.34
2023-07-04T19:41:05.664Z,100924.06
2023-07-04T19:43:32.118Z,100924.78
2023-07-04T19:45:59.317Z,100930.56
2023-07-04T19:48:26.608Z,100929.84
2023-07-04T19:50:53.279Z,100929.84
2023-07-04T19:53:19.714Z,100932.66
2023-07-04T19:55:46.545Z,100928.28
2023-07-04T19:58:12.931Z,100939.09
2023-07-04T20:00:44.736Z,100938.31
2023-07-04T20:03:11.421Z,100941.84
2023-07-04T20:05:37.883Z,100938.97
2023-07-04T20:08:04.320Z,100941.13
2023-07-04T20:10:30.815Z,100935.34
2023-07-04T20:12:57.219Z,100938.16
2023-07-04T20:15:23.628Z,100931.03
2023-07-04T20:17:50.075Z,100930.88
2023-07-04T20:20:16.553Z,100933.00
2023-07-04T20:22:42.977Z,100929.47
2023-07-04T20:25:09.478Z,100926.59
2023-07-04T20:27:36.602Z,100928.00
2023-07-04T20:30:03.013Z,100926.50
2023-07-04T20:32:29.574Z,100922.28
2023-07-04T20:34:55.980Z,100925.94
2023-07-04T20:37:22.426Z,100929.38
2023-07-04T20:39:48.826Z,100923.53
2023-07-04T20:42:15.231Z,100924.97
2023-07-04T20:44:41.620Z,100916.34
2023-07-04T20:47:08.473Z,100919.91
2023-07-04T20:49:34.852Z,100919.84
2023-07-04T20:52:02.697Z,100919.19
2023-07-04T20:54:29.905Z,100925.03
2023-07-04T20:56:56.341Z,100932.94
2023-07-04T20:59:24.781Z,100930.81
2023-07-04T21:01:51.831Z,100932.22
2023-07-04T21:04:19.754Z,100930.75
2023-07-04T21:06:47.838Z,100933.63
2023-07-04T21:09:15.129Z,100920.56
2023-07-04T21:11:41.521Z,100918.44
2023-07-04T21:14:08.060Z,100919.09
2023-07-04T21:16:34.750Z,100923.34
2023-07-04T21:19:01.162Z,100919.63
2023-07-04T21:21:28.454Z,100913.09
2023-07-04T21:23:54.914Z,100917.41
2023-07-04T21:26:21.300Z,100911.63
2023-07-04T21:28:47.697Z,100917.34
2023-07-04T21:31:14.292Z,100912.97
2023-07-04T21:33:40.907Z,100912.97
2023-07-04T21:36:07.311Z,100905.78
2023-07-04T21:38:37.272Z,100914.47
2023-07-04T21:41:03.674Z,100913.72
2023-07-04T21:43:30.109Z,100918.75
2023-07-04T21:45:59.966Z,100910.03
2023-07-04T21:48:27.707Z,100912.91
2023-07-04T21:50:54.123Z,100920.09
2023-07-04T21:53:20.655Z,100918.63
2023-07-04T21:55:47.079Z,100915.75
2023-07-04T21:58:13.485Z,100921.38
2023-07-04T22:00:40.319Z,100926.59
2023-07-04T22:03:06.769Z,100921.59
2023-07-04T22:05:33.190Z,100917.28
2023-07-04T22:07:59.585Z,100920.16
2023-07-04T22:10:25.981Z,100920.09
2023-07-04T22:12:52.634Z,100915.66
2023-07-04T22:15:23.202Z,100921.38
2023-07-04T22:17:49.760Z,100925.81
2023-07-04T22:20:16.198Z,100925.06
2023-07-04T22:22:42.618Z,100927.38
2023-07-04T22:25:09.328Z,100924.53
2023-07-04T22:27:35.707Z,100923.06
2023-07-04T22:30:02.082Z,100921.59
2023-07-04T22:32:28.540Z,100920.81
2023-07-04T22:34:54.931Z,100915.75
2023-07-04T22:37:21.345Z,100915.75
2023-07-04T22:39:47.727Z,100917.13
2023-07-04T22:42:14.113Z,100905.56
2023-07-04T22:44:40.502Z,100914.25
2023-07-04T22:47:06.919Z,100908.47
2023-07-04T22:49:33.497Z,100902.63
2023-07-04T22:52:00.718Z,100903.38
2023-07-04T22:54:27.633Z,100911.34
2023-07-04T22:56:54.021Z,100914.16
2023-07-04T22:59:20.410Z,100900.47
2023-07-04T23:01:46.871Z,100893.88
2023-07-04T23:04:13.292Z,100896.75
2023-07-04T23:06:39.687Z,100890.97
2023-07-04T23:09:06.530Z,100895.28
2023-07-04T23:11:32.925Z,100901.81
2023-07-04T23:13:59.408Z,100905.44
2023-07-04T23:16:25.892Z,100893.88
2023-07-04T23:18:52.272Z,100895.28
2023-07-04T23:21:18.756Z,100886.63
2023-07-04T23:23:45.810Z,100895.94
2023-07-04T23:26:16.006Z,100899.59
2023-07-04T23:28:42.681Z,100899.53
2023-07-04T23:31:09.938Z,100892.31
2023-07-04T23:33:36.413Z,100899.53
2023-07-04T23:36:03.053Z,100892.25
2023-07-04T23:38:29.506Z,100887.97
2023-07-04T23:40:56.196Z,100885.09
2023-07-04T23:43:22.573Z,100889.38
2023-07-04T23:45:49.038Z,100881.44
2023-07-04T23:48:15.427Z,100879.22
2023-07-04T23:50:41.883Z,100882.13
2023-07-04T23:53:08.271Z,100882.78
2023-07-04T23:55:34.662Z,100885.00
2023-07-04T23:58:01.106Z,100883.50
